Wetterdaten: Woche 26.02.07 - 04.03.07 (KW9)
Datum Zeit Temperatur Luftfeuchte Luftdruck Niederschlag Wind Richtung Sonnenschein UV-Strahlung Solar Taupunkt Windchill Windben
26.02.2007 00:00 4.8 C 94 % 1007.4 hPa 2.2 l/m 2.5 km/h (1 Bft) S-SW 0.00 h 0.0 UV-I 0 W/m 3.9 C 4.7 C 5.9 km/h (2 Bft)
26.02.2007 01:00 4.9 C 94 % 1007.6 hPa 0.4 l/m 4.8 km/h (1 Bft) S-SW 0.00 h 0.0 UV-I 0 W/m 4.1 C 4.2 C 9.4 km/h (2 Bft)
26.02.2007 02:00 5.1 C 94 % 1007.9 hPa 0.8 l/m 4.7 km/h (1 Bft) S 0.00 h 0.0 UV-I 0 W/m 4.3 C 4.4 C 9.7 km/h (2 Bft)
26.02.2007 03:00 5.1 C 95 % 1008.1 hPa 0.4 l/m 4.8 km/h (1 Bft) W-SW 0.00 h 0.0 UV-I 0 W/m 4.4 C 4.4 C 8.9 km/h (2 Bft)
26.02.2007 04:00 5.0 C 95 % 1008.4 hPa 0.8 l/m 3.7 km/h (1 Bft) SW 0.00 h 0.0 UV-I 0 W/m 4.3 C 4.6 C 7.5 km/h (2 Bft)
26.02.2007 05:00 5.0 C 96 % 1008.9 hPa 0.8 l/m 4.3 km/h (1 Bft) SW 0.00 h 0.0 UV-I 0 W/m 4.3 C 4.4 C 8.3 km/h (2 Bft)
26.02.2007 06:00 5.0 C 96 % 1009.6 hPa 1.6 l/m 4.1 km/h (1 Bft) SW 0.00 h 0.0 UV-I 0 W/m 4.4 C 4.5 C 7.8 km/h (2 Bft)
26.02.2007 07:00 5.4 C 94 % 1010.3 hPa 0.2 l/m 9.0 km/h (2 Bft) W 0.00 h 0.0 UV-I 15 W/m 4.5 C 3.6 C 14.3 km/h (3 Bft)
26.02.2007 08:00 5.7 C 92 % 1011.0 hPa 0.4 l/m 4.1 km/h (1 Bft) W-SW 0.00 h 0.0 UV-I 22 W/m 4.5 C 5.1 C 7.3 km/h (2 Bft)
26.02.2007 09:00 5.1 C 95 % 1012.0 hPa 0.4 l/m 3.4 km/h (1 Bft) S 0.00 h 0.5 UV-I 34 W/m 4.3 C 4.8 C 7.0 km/h (2 Bft)
26.02.2007 10:00 5.6 C 94 % 1012.3 hPa 0.0 l/m 3.4 km/h (1 Bft) S-SW 0.00 h 0.5 UV-I 67 W/m 4.7 C 5.3 C 7.2 km/h (2 Bft)
26.02.2007 11:00 5.6 C 94 % 1012.5 hPa 1.2 l/m 4.0 km/h (1 Bft) S-SW 0.00 h 0.5 UV-I 42 W/m 4.7 C 5.1 C 7.8 km/h (2 Bft)
26.02.2007 12:00 5.8 C 95 % 1012.8 hPa 1.8 l/m 3.8 km/h (1 Bft) W 0.00 h 0.7 UV-I 46 W/m 5.0 C 5.3 C 6.9 km/h (2 Bft)
26.02.2007 13:00 6.1 C 94 % 1012.4 hPa 0.8 l/m 1.8 km/h (1 Bft) W 0.00 h 0.6 UV-I 47 W/m 5.3 C 6.0 C 3.9 km/h (1 Bft)
26.02.2007 14:00 6.3 C 91 % 1012.2 hPa 0.4 l/m 12.0 km/h (2 Bft) W 0.00 h 0.7 UV-I 106 W/m 5.0 C 4.1 C 20.0 km/h (4 Bft)
26.02.2007 15:00 6.5 C 88 % 1012.4 hPa 0.0 l/m 8.5 km/h (2 Bft) W 0.00 h 0.7 UV-I 101 W/m 4.5 C 5.0 C 13.9 km/h (3 Bft)
26.02.2007 16:00 6.6 C 87 % 1012.8 hPa 0.2 l/m 8.6 km/h (2 Bft) W 0.10 h 0.5 UV-I 87 W/m 4.5 C 5.1 C 14.5 km/h (3 Bft)
26.02.2007 17:00 5.9 C 89 % 1013.1 hPa 0.4 l/m 8.2 km/h (2 Bft) W 0.12 h 0.0 UV-I 27 W/m 4.2 C 4.7 C 14.1 km/h (3 Bft)
26.02.2007 18:00 6.2 C 85 % 1014.1 hPa 0.0 l/m 14.6 km/h (3 Bft) W 0.00 h 0.0 UV-I 0 W/m 3.8 C 3.4 C 23.3 km/h (4 Bft)
26.02.2007 19:00 6.2 C 81 % 1015.0 hPa 0.0 l/m 15.8 km/h (3 Bft) W 0.00 h 0.0 UV-I 0 W/m 3.2 C 3.2 C 24.2 km/h (4 Bft)
26.02.2007 20:00 6.1 C 81 % 1016.0 hPa 0.0 l/m 13.0 km/h (3 Bft) W 0.00 h 0.0 UV-I 0 W/m 3.2 C 3.6 C 20.3 km/h (4 Bft)
26.02.2007 21:00 5.8 C 85 % 1016.8 hPa 0.2 l/m 14.8 km/h (3 Bft) W 0.00 h 0.0 UV-I 0 W/m 3.4 C 2.8 C 22.6 km/h (4 Bft)
26.02.2007 22:00 5.6 C 84 % 1017.5 hPa 0.0 l/m 6.4 km/h (2 Bft) W 0.00 h 0.0 UV-I 0 W/m 3.1 C 4.4 C 10.9 km/h (2 Bft)
26.02.2007 23:00 5.4 C 85 % 1018.3 hPa 0.0 l/m 8.3 km/h (2 Bft) W 0.00 h 0.0 UV-I 0 W/m 3.0 C 3.6 C 13.8 km/h (3 Bft)
27.02.2007 00:00 5.3 C 84 % 1018.7 hPa 0.0 l/m 11.6 km/h (2 Bft) W 0.00 h 0.0 UV-I 0 W/m 2.8 C 2.8 C 18.0 km/h (3 Bft)
27.02.2007 01:00 4.9 C 86 % 1019.2 hPa 0.0 l/m 0.9 km/h (0 Bft) W-NW 0.00 h 0.0 UV-I 0 W/m 2.8 C 4.8 C 2.5 km/h (1 Bft)
27.02.2007 02:00 4.8 C 85 % 1019.8 hPa 0.0 l/m 8.8 km/h (2 Bft) W 0.00 h 0.0 UV-I 0 W/m 2.5 C 3.1 C 13.7 km/h (3 Bft)
27.02.2007 03:00 5.2 C 82 % 1020.0 hPa 0.0 l/m 13.4 km/h (3 Bft) W 0.00 h 0.0 UV-I 0 W/m 2.3 C 2.3 C 19.6 km/h (3 Bft)
27.02.2007 04:00 5.1 C 82 % 1020.5 hPa 0.0 l/m 9.5 km/h (2 Bft) W 0.00 h 0.0 UV-I 0 W/m 2.3 C 3.0 C 15.2 km/h (3 Bft)
27.02.2007 05:00 5.2 C 79 % 1021.0 hPa 0.0 l/m 9.2 km/h (2 Bft) W 0.00 h 0.0 UV-I 0 W/m 1.9 C 3.2 C 14.4 km/h (3 Bft)
27.02.2007 06:00 5.3 C 78 % 1021.3 hPa 0.0 l/m 7.9 km/h (2 Bft) W 0.00 h 0.0 UV-I 0 W/m 1.7 C 3.6 C 12.6 km/h (3 Bft)
27.02.2007 07:00 4.9 C 78 % 1021.7 hPa 0.0 l/m 5.7 km/h (1 Bft) W-SW 0.00 h 0.0 UV-I 22 W/m 1.4 C 3.8 C 9.3 km/h (2 Bft)
27.02.2007 08:00 4.6 C 77 % 1021.9 hPa 0.0 l/m 2.0 km/h (1 Bft) W-SW 0.00 h 0.6 UV-I 85 W/m 1.0 C 4.6 C 4.7 km/h (1 Bft)
27.02.2007 09:00 5.7 C 74 % 1021.8 hPa 0.0 l/m 4.0 km/h (1 Bft) W-SW 0.15 h 0.9 UV-I 169 W/m 1.4 C 5.1 C 7.3 km/h (2 Bft)
27.02.2007 10:00 6.8 C 67 % 1021.5 hPa 0.0 l/m 11.6 km/h (2 Bft) W 0.52 h 1.6 UV-I 293 W/m 1.1 C 4.6 C 18.3 km/h (3 Bft)
27.02.2007 11:00 7.8 C 59 % 1021.1 hPa 0.0 l/m 10.6 km/h (2 Bft) W-SW 0.63 h 2.2 UV-I 354 W/m 0.4 C 6.0 C 16.6 km/h (3 Bft)
27.02.2007 12:00 9.0 C 52 % 1020.3 hPa 0.0 l/m 16.7 km/h (3 Bft) W 0.58 h 2.5 UV-I 443 W/m -0.4 C 6.5 C 26.0 km/h (4 Bft)
27.02.2007 13:00 8.7 C 53 % 1019.4 hPa 0.0 l/m 11.2 km/h (2 Bft) W 0.00 h 1.2 UV-I 156 W/m -0.3 C 7.0 C 17.3 km/h (3 Bft)
27.02.2007 14:00 8.3 C 55 % 1018.9 hPa 0.0 l/m 9.2 km/h (2 Bft) W 0.00 h 0.7 UV-I 87 W/m -0.2 C 6.8 C 14.0 km/h (3 Bft)
27.02.2007 15:00 8.2 C 58 % 1018.3 hPa 0.0 l/m 6.2 km/h (2 Bft) W 0.00 h 0.7 UV-I 79 W/m 0.3 C 7.4 C 10.1 km/h (2 Bft)
27.02.2007 16:00 7.8 C 63 % 1017.3 hPa 0.0 l/m 4.3 km/h (1 Bft) SW 0.00 h 0.0 UV-I 35 W/m 1.2 C 7.3 C 8.3 km/h (2 Bft)
27.02.2007 17:00 6.6 C 75 % 1016.7 hPa 1.0 l/m 9.5 km/h (2 Bft) SW 0.00 h 0.0 UV-I 8 W/m 2.4 C 4.9 C 17.7 km/h (3 Bft)
27.02.2007 18:00 4.9 C 90 % 1017.1 hPa 2.4 l/m 5.7 km/h (1 Bft) SW 0.00 h 0.0 UV-I 0 W/m 3.4 C 3.9 C 11.0 km/h (2 Bft)
27.02.2007 19:00 4.9 C 92 % 1016.7 hPa 0.6 l/m 2.5 km/h (1 Bft) S 0.00 h 0.0 UV-I 0 W/m 3.7 C 4.7 C 5.9 km/h (2 Bft)
27.02.2007 20:00 5.1 C 94 % 1015.6 hPa 0.0 l/m 2.0 km/h (1 Bft) N-NW 0.00 h 0.0 UV-I 0 W/m 4.2 C 5.0 C 4.6 km/h (1 Bft)
27.02.2007 21:00 5.1 C 95 % 1014.9 hPa 0.0 l/m 3.5 km/h (1 Bft) N-NW 0.00 h 0.0 UV-I 0 W/m 4.3 C 4.7 C 7.0 km/h (2 Bft)
27.02.2007 22:00 5.5 C 96 % 1014.6 hPa 0.2 l/m 3.5 km/h (1 Bft) W-SW 0.00 h 0.0 UV-I 0 W/m 4.9 C 5.0 C 7.0 km/h (2 Bft)
27.02.2007 23:00 6.5 C 90 % 1013.3 hPa 0.0 l/m 5.9 km/h (2 Bft) SW 0.00 h 0.0 UV-I 0 W/m 5.0 C 5.5 C 12.3 km/h (3 Bft)
28.02.2007 00:00 7.2 C 86 % 1012.5 hPa 0.0 l/m 7.0 km/h (2 Bft) SW 0.00 h 0.0 UV-I 0 W/m 5.0 C 6.0 C 14.0 km/h (3 Bft)
28.02.2007 01:00 7.6 C 85 % 1011.8 hPa 0.0 l/m 4.4 km/h (1 Bft) S-SW 0.00 h 0.0 UV-I 0 W/m 5.3 C 7.2 C 9.1 km/h (2 Bft)
28.02.2007 02:00 8.1 C 83 % 1010.8 hPa 0.0 l/m 2.9 km/h (1 Bft) SW 0.00 h 0.0 UV-I 0 W/m 5.4 C 7.9 C 6.4 km/h (2 Bft)
28.02.2007 03:00 8.1 C 86 % 1009.9 hPa 0.6 l/m 2.9 km/h (1 Bft) S 0.00 h 0.0 UV-I 0 W/m 5.8 C 8.0 C 5.8 km/h (2 Bft)
28.02.2007 04:00 7.6 C 89 % 1009.3 hPa 0.0 l/m 2.5 km/h (1 Bft) S-SO 0.00 h 0.0 UV-I 0 W/m 5.8 C 7.5 C 4.8 km/h (1 Bft)
28.02.2007 05:00 8.0 C 86 % 1008.8 hPa 0.0 l/m 3.8 km/h (1 Bft) S-SO 0.00 h 0.0 UV-I 0 W/m 5.8 C 7.7 C 6.4 km/h (2 Bft)
28.02.2007 06:00 8.1 C 90 % 1008.2 hPa 1.6 l/m 2.2 km/h (1 Bft) S 0.00 h 0.0 UV-I 0 W/m 6.5 C 8.0 C 4.9 km/h (1 Bft)
28.02.2007 07:00 8.0 C 95 % 1008.2 hPa 1.6 l/m 3.5 km/h (1 Bft) SW 0.00 h 0.0 UV-I 9 W/m 7.3 C 7.9 C 6.9 km/h (2 Bft)
28.02.2007 08:00 8.6 C 96 % 1008.7 hPa 1.6 l/m 4.8 km/h (1 Bft) W-SW 0.00 h 0.0 UV-I 17 W/m 8.0 C 8.1 C 8.7 km/h (2 Bft)
28.02.2007 09:00 9.1 C 94 % 1009.0 hPa 0.2 l/m 3.9 km/h (1 Bft) W-SW 0.00 h 0.6 UV-I 61 W/m 8.2 C 8.8 C 7.0 km/h (2 Bft)
28.02.2007 10:00 10.0 C 86 % 1009.3 hPa 0.0 l/m 10.7 km/h (2 Bft) W 0.03 h 1.2 UV-I 139 W/m 7.7 C 9.7 C 16.9 km/h (3 Bft)
28.02.2007 11:00 12.3 C 66 % 1008.6 hPa 0.2 l/m 20.8 km/h (4 Bft) W 0.37 h 1.9 UV-I 318 W/m 5.9 C 12.3 C 31.8 km/h (5 Bft)
28.02.2007 12:00 13.0 C 55 % 1008.2 hPa 0.0 l/m 23.4 km/h (4 Bft) W 0.22 h 2.0 UV-I 297 W/m 4.1 C 13.0 C 35.5 km/h (5 Bft)
28.02.2007 13:00 11.8 C 65 % 1008.3 hPa 0.0 l/m 24.6 km/h (4 Bft) W 0.00 h 1.4 UV-I 187 W/m 5.3 C 11.8 C 36.7 km/h (5 Bft)
28.02.2007 14:00 11.2 C 67 % 1008.4 hPa 0.2 l/m 22.8 km/h (4 Bft) W 0.02 h 0.9 UV-I 97 W/m 5.3 C 11.2 C 33.6 km/h (5 Bft)
28.02.2007 15:00 11.7 C 62 % 1008.0 hPa 0.0 l/m 19.9 km/h (4 Bft) W 0.12 h 0.9 UV-I 134 W/m 4.7 C 11.7 C 31.1 km/h (5 Bft)
28.02.2007 16:00 11.3 C 64 % 1007.7 hPa 0.0 l/m 13.4 km/h (3 Bft) W-SW 0.15 h 0.5 UV-I 76 W/m 4.8 C 11.3 C 21.4 km/h (4 Bft)
28.02.2007 17:00 10.2 C 75 % 1007.1 hPa 0.0 l/m 6.0 km/h (2 Bft) W-SW 0.00 h 0.0 UV-I 31 W/m 6.0 C 10.0 C 10.7 km/h (2 Bft)
28.02.2007 18:00 9.9 C 72 % 1007.5 hPa 0.0 l/m 15.0 km/h (3 Bft) W-SW 0.00 h 0.0 UV-I 0 W/m 5.1 C 8.9 C 23.5 km/h (4 Bft)
28.02.2007 19:00 9.9 C 71 % 1007.7 hPa 0.2 l/m 7.5 km/h (2 Bft) W-SW 0.00 h 0.0 UV-I 0 W/m 4.8 C 9.3 C 12.7 km/h (3 Bft)
28.02.2007 20:00 10.7 C 64 % 1007.8 hPa 0.0 l/m 14.5 km/h (3 Bft) W-SW 0.00 h 0.0 UV-I 0 W/m 4.0 C 10.5 C 23.0 km/h (4 Bft)
28.02.2007 21:00 10.5 C 67 % 1007.9 hPa 0.4 l/m 13.8 km/h (3 Bft) W-SW 0.00 h 0.0 UV-I 0 W/m 4.6 C 9.8 C 21.2 km/h (4 Bft)
28.02.2007 22:00 10.1 C 68 % 1008.3 hPa 0.0 l/m 17.8 km/h (3 Bft) W-SW 0.00 h 0.0 UV-I 0 W/m 4.4 C 9.3 C 27.4 km/h (4 Bft)
28.02.2007 23:00 8.4 C 81 % 1008.1 hPa 0.6 l/m 16.9 km/h (3 Bft) W-SW 0.00 h 0.0 UV-I 0 W/m 5.3 C 6.0 C 26.9 km/h (4 Bft)
01.03.2007 00:00 9.0 C 74 % 1007.7 hPa 0.0 l/m 7.2 km/h (2 Bft) W-SW 0.00 h 0.0 UV-I 0 W/m 4.7 C 8.1 C 12.2 km/h (2 Bft)
01.03.2007 01:00 10.2 C 64 % 1007.4 hPa 0.0 l/m 12.1 km/h (2 Bft) W-SW 0.00 h 0.0 UV-I 0 W/m 3.6 C 9.6 C 19.5 km/h (3 Bft)
01.03.2007 02:00 10.3 C 60 % 1007.0 hPa 0.0 l/m 10.8 km/h (2 Bft) W-SW 0.00 h 0.0 UV-I 0 W/m 2.8 C 10.3 C 17.7 km/h (3 Bft)
01.03.2007 03:00 10.3 C 59 % 1005.4 hPa 0.0 l/m 10.5 km/h (2 Bft) W-SW 0.00 h 0.0 UV-I 0 W/m 2.7 C 10.3 C 16.4 km/h (3 Bft)
01.03.2007 04:00 10.0 C 60 % 1004.4 hPa 0.0 l/m 7.2 km/h (2 Bft) W-SW 0.00 h 0.0 UV-I 0 W/m 2.7 C 9.9 C 11.8 km/h (2 Bft)
01.03.2007 05:00 10.4 C 61 % 1004.0 hPa 0.0 l/m 16.8 km/h (3 Bft) W-SW 0.00 h 0.0 UV-I 0 W/m 3.2 C 10.4 C 26.7 km/h (4 Bft)
01.03.2007 06:00 9.5 C 69 % 1003.9 hPa 0.6 l/m 20.3 km/h (4 Bft) W-SW 0.00 h 0.0 UV-I 0 W/m 4.2 C 7.5 C 31.5 km/h (5 Bft)
01.03.2007 07:00 8.8 C 76 % 1004.3 hPa 1.0 l/m 15.8 km/h (3 Bft) W-SW 0.00 h 0.0 UV-I 7 W/m 4.7 C 6.4 C 25.5 km/h (4 Bft)
01.03.2007 08:00 9.6 C 68 % 1004.0 hPa 0.4 l/m 16.7 km/h (3 Bft) W-SW 0.00 h 0.0 UV-I 14 W/m 4.1 C 7.4 C 25.6 km/h (4 Bft)
01.03.2007 09:00 8.9 C 75 % 1004.1 hPa 0.4 l/m 13.5 km/h (3 Bft) W-SW 0.00 h 0.0 UV-I 27 W/m 4.6 C 6.8 C 22.1 km/h (4 Bft)
01.03.2007 10:00 10.1 C 66 % 1003.1 hPa 0.0 l/m 18.8 km/h (3 Bft) W-SW 0.00 h 0.6 UV-I 79 W/m 4.0 C 8.8 C 30.6 km/h (5 Bft)
01.03.2007 11:00 10.5 C 65 % 1002.4 hPa 0.0 l/m 22.6 km/h (4 Bft) W-SW 0.00 h 0.7 UV-I 97 W/m 4.1 C 10.5 C 37.1 km/h (5 Bft)
01.03.2007 12:00 10.0 C 70 % 1002.1 hPa 0.2 l/m 20.3 km/h (4 Bft) W-SW 0.00 h 0.6 UV-I 68 W/m 4.8 C 8.6 C 35.1 km/h (5 Bft)
01.03.2007 13:00 10.1 C 69 % 1001.1 hPa 0.2 l/m 21.3 km/h (4 Bft) W-SW 0.00 h 0.6 UV-I 67 W/m 4.8 C 8.8 C 35.1 km/h (5 Bft)
01.03.2007 14:00 10.4 C 68 % 1000.2 hPa 0.4 l/m 18.5 km/h (3 Bft) W-SW 0.00 h 0.5 UV-I 55 W/m 4.8 C 10.4 C 30.2 km/h (5 Bft)
01.03.2007 15:00 10.0 C 70 % 1000.4 hPa 0.2 l/m 20.0 km/h (4 Bft) W 0.00 h 0.0 UV-I 41 W/m 4.9 C 8.7 C 30.2 km/h (5 Bft)
01.03.2007 16:00 8.8 C 81 % 1001.6 hPa 1.4 l/m 22.9 km/h (4 Bft) W 0.00 h 0.0 UV-I 45 W/m 5.6 C 5.5 C 33.2 km/h (5 Bft)
01.03.2007 17:00 6.7 C 88 % 1003.3 hPa 2.0 l/m 22.4 km/h (4 Bft) W 0.00 h 0.0 UV-I 12 W/m 4.9 C 3.0 C 32.5 km/h (5 Bft)
01.03.2007 18:00 5.4 C 91 % 1004.6 hPa 1.2 l/m 16.8 km/h (3 Bft) W 0.00 h 0.0 UV-I 0 W/m 3.9 C 2.0 C 25.8 km/h (4 Bft)
01.03.2007 19:00 5.4 C 91 % 1004.7 hPa 0.2 l/m 3.4 km/h (1 Bft) W 0.00 h 0.0 UV-I 0 W/m 4.1 C 5.0 C 5.5 km/h (1 Bft)
01.03.2007 20:00 5.5 C 93 % 1004.6 hPa 0.0 l/m 1.9 km/h (1 Bft) W-SW 0.00 h 0.0 UV-I 0 W/m 4.6 C 5.5 C 4.1 km/h (1 Bft)
01.03.2007 21:00 5.7 C 95 % 1004.4 hPa 0.0 l/m 0.3 km/h (0 Bft) W-SW 0.00 h 0.0 UV-I 0 W/m 4.9 C 5.7 C 1.1 km/h (1 Bft)
01.03.2007 22:00 5.9 C 95 % 1004.2 hPa 0.0 l/m 3.0 km/h (1 Bft) S-SW 0.00 h 0.0 UV-I 0 W/m 5.1 C 5.7 C 6.5 km/h (2 Bft)
01.03.2007 23:00 6.6 C 91 % 1003.9 hPa 0.8 l/m 4.6 km/h (1 Bft) S-SW 0.00 h 0.0 UV-I 0 W/m 5.2 C 6.0 C 9.1 km/h (2 Bft)
02.03.2007 00:00 6.0 C 92 % 1003.9 hPa 2.4 l/m 7.9 km/h (2 Bft) W-SW 0.00 h 0.0 UV-I 0 W/m 4.8 C 4.5 C 13.3 km/h (3 Bft)
02.03.2007 01:00 5.4 C 92 % 1003.9 hPa 2.0 l/m 4.0 km/h (1 Bft) W-SW 0.00 h 0.0 UV-I 0 W/m 4.3 C 4.9 C 7.4 km/h (2 Bft)
02.03.2007 02:00 5.3 C 93 % 1003.5 hPa 2.2 l/m 4.3 km/h (1 Bft) W 0.00 h 0.0 UV-I 0 W/m 4.2 C 4.5 C 8.0 km/h (2 Bft)
02.03.2007 03:00 4.8 C 91 % 1003.4 hPa 1.4 l/m 4.4 km/h (1 Bft) W-SW 0.00 h 0.0 UV-I 0 W/m 3.5 C 4.1 C 8.6 km/h (2 Bft)
02.03.2007 04:00 4.6 C 93 % 1004.2 hPa 0.4 l/m 1.0 km/h (0 Bft) S-SO 0.00 h 0.0 UV-I 0 W/m 3.5 C 4.6 C 2.4 km/h (1 Bft)
02.03.2007 05:00 4.8 C 93 % 1005.7 hPa 0.0 l/m 2.5 km/h (1 Bft) S-SO 0.00 h 0.0 UV-I 0 W/m 3.7 C 4.5 C 5.0 km/h (1 Bft)
02.03.2007 06:00 5.1 C 93 % 1006.9 hPa 0.2 l/m 4.0 km/h (1 Bft) S-SW 0.00 h 0.0 UV-I 0 W/m 4.1 C 4.6 C 7.8 km/h (2 Bft)
02.03.2007 07:00 5.3 C 94 % 1008.3 hPa 0.0 l/m 3.7 km/h (1 Bft) W-SW 0.00 h 0.0 UV-I 5 W/m 4.4 C 4.9 C 7.0 km/h (2 Bft)
02.03.2007 08:00 5.7 C 91 % 1009.7 hPa 0.2 l/m 12.6 km/h (3 Bft) W 0.00 h 0.0 UV-I 22 W/m 4.3 C 3.2 C 19.2 km/h (3 Bft)
02.03.2007 09:00 6.0 C 85 % 1010.8 hPa 0.0 l/m 13.3 km/h (3 Bft) W 0.00 h 0.7 UV-I 56 W/m 3.6 C 3.4 C 21.5 km/h (4 Bft)
02.03.2007 10:00 6.5 C 80 % 1011.8 hPa 0.0 l/m 12.0 km/h (2 Bft) W 0.00 h 1.0 UV-I 101 W/m 3.3 C 4.2 C 19.8 km/h (4 Bft)
02.03.2007 11:00 7.3 C 73 % 1012.3 hPa 0.0 l/m 14.5 km/h (3 Bft) W-SW 0.00 h 1.3 UV-I 178 W/m 2.8 C 4.7 C 22.7 km/h (4 Bft)
02.03.2007 12:00 7.9 C 68 % 1012.5 hPa 0.0 l/m 15.6 km/h (3 Bft) W 0.03 h 1.4 UV-I 174 W/m 2.3 C 5.3 C 23.3 km/h (4 Bft)
02.03.2007 13:00 9.3 C 60 % 1012.5 hPa 0.0 l/m 14.1 km/h (3 Bft) W 0.33 h 1.7 UV-I 326 W/m 2.0 C 7.4 C 21.2 km/h (4 Bft)
02.03.2007 14:00 8.9 C 64 % 1012.7 hPa 0.0 l/m 14.0 km/h (3 Bft) W 0.02 h 1.1 UV-I 171 W/m 2.4 C 6.7 C 21.3 km/h (4 Bft)
02.03.2007 15:00 8.4 C 71 % 1013.3 hPa 0.0 l/m 10.3 km/h (2 Bft) W 0.35 h 1.1 UV-I 249 W/m 3.5 C 6.7 C 15.7 km/h (3 Bft)
02.03.2007 16:00 8.6 C 72 % 1013.4 hPa 0.0 l/m 9.5 km/h (2 Bft) W 0.17 h 0.6 UV-I 134 W/m 3.8 C 7.1 C 15.0 km/h (3 Bft)
02.03.2007 17:00 7.7 C 76 % 1013.1 hPa 0.0 l/m 2.4 km/h (1 Bft) W-SW 0.03 h 0.0 UV-I 40 W/m 3.8 C 7.4 C 4.1 km/h (1 Bft)
02.03.2007 18:00 6.4 C 82 % 1013.3 hPa 0.0 l/m 1.9 km/h (1 Bft) SO 0.05 h 0.0 UV-I 10 W/m 3.6 C 6.3 C 3.3 km/h (1 Bft)
02.03.2007 19:00 5.7 C 86 % 1013.1 hPa 0.0 l/m 3.7 km/h (1 Bft) O-SO 0.00 h 0.0 UV-I 0 W/m 3.5 C 5.2 C 5.5 km/h (1 Bft)
02.03.2007 20:00 5.4 C 87 % 1012.6 hPa 0.0 l/m 2.3 km/h (1 Bft) O-SO 0.00 h 0.0 UV-I 0 W/m 3.4 C 5.1 C 3.6 km/h (1 Bft)
02.03.2007 21:00 5.1 C 92 % 1012.5 hPa 0.4 l/m 0.3 km/h (0 Bft) O-SO 0.00 h 0.0 UV-I 0 W/m 3.9 C 5.1 C 0.6 km/h (0 Bft)
02.03.2007 22:00 5.0 C 96 % 1011.7 hPa 0.4 l/m 0.0 km/h (0 Bft) O-SO 0.00 h 0.0 UV-I 0 W/m 4.4 C 5.0 C 0.3 km/h (0 Bft)
02.03.2007 23:00 5.1 C 97 % 1010.6 hPa 1.0 l/m 0.3 km/h (0 Bft) O-SO 0.00 h 0.0 UV-I 0 W/m 4.7 C 5.1 C 1.0 km/h (0 Bft)
03.03.2007 00:00 5.6 C 97 % 1009.6 hPa 0.8 l/m 2.2 km/h (1 Bft) O 0.00 h 0.0 UV-I 0 W/m 5.3 C 5.5 C 4.9 km/h (1 Bft)
03.03.2007 01:00 7.4 C 98 % 1008.3 hPa 1.8 l/m 7.8 km/h (2 Bft) S 0.00 h 0.0 UV-I 0 W/m 7.0 C 6.0 C 15.2 km/h (3 Bft)
03.03.2007 02:00 7.6 C 96 % 1007.4 hPa 3.0 l/m 6.3 km/h (2 Bft) S 0.00 h 0.0 UV-I 0 W/m 7.0 C 6.7 C 12.7 km/h (3 Bft)
03.03.2007 03:00 7.8 C 96 % 1006.6 hPa 5.2 l/m 4.6 km/h (1 Bft) S-SO 0.00 h 0.0 UV-I 0 W/m 7.3 C 7.3 C 9.7 km/h (2 Bft)
03.03.2007 04:00 8.6 C 96 % 1005.8 hPa 0.2 l/m 7.0 km/h (2 Bft) SW 0.00 h 0.0 UV-I 0 W/m 7.9 C 7.6 C 14.2 km/h (3 Bft)
03.03.2007 05:00 9.5 C 92 % 1005.4 hPa 0.4 l/m 7.6 km/h (2 Bft) SW 0.00 h 0.0 UV-I 0 W/m 8.2 C 8.6 C 14.7 km/h (3 Bft)
03.03.2007 06:00 9.9 C 91 % 1004.9 hPa 2.6 l/m 8.9 km/h (2 Bft) SW 0.00 h 0.0 UV-I 0 W/m 8.5 C 9.0 C 17.0 km/h (3 Bft)
03.03.2007 07:00 9.7 C 93 % 1005.3 hPa 0.4 l/m 7.0 km/h (2 Bft) SW 0.00 h 0.0 UV-I 13 W/m 8.7 C 9.0 C 13.5 km/h (3 Bft)
03.03.2007 08:00 10.1 C 92 % 1005.9 hPa 0.2 l/m 8.2 km/h (2 Bft) SW 0.00 h 0.5 UV-I 27 W/m 8.9 C 9.8 C 15.7 km/h (3 Bft)
03.03.2007 09:00 11.9 C 79 % 1006.1 hPa 0.0 l/m 16.6 km/h (3 Bft) W 0.15 h 1.0 UV-I 141 W/m 8.3 C 11.9 C 25.5 km/h (4 Bft)
03.03.2007 10:00 12.7 C 66 % 1006.7 hPa 0.2 l/m 28.2 km/h (4 Bft) W 0.22 h 1.4 UV-I 230 W/m 6.4 C 12.7 C 42.6 km/h (6 Bft)
03.03.2007 11:00 11.6 C 71 % 1008.4 hPa 0.0 l/m 24.2 km/h (4 Bft) W 0.12 h 1.9 UV-I 250 W/m 6.5 C 11.6 C 35.4 km/h (5 Bft)
03.03.2007 12:00 10.9 C 71 % 1009.5 hPa 0.2 l/m 29.7 km/h (5 Bft) W 0.07 h 1.4 UV-I 174 W/m 5.8 C 9.6 C 42.3 km/h (6 Bft)
03.03.2007 13:00 10.2 C 72 % 1010.6 hPa 0.2 l/m 29.2 km/h (5 Bft) W 0.30 h 1.9 UV-I 298 W/m 5.4 C 9.5 C 42.8 km/h (6 Bft)
03.03.2007 14:00 10.7 C 66 % 1011.6 hPa 0.0 l/m 26.5 km/h (4 Bft) W 0.37 h 1.7 UV-I 273 W/m 4.6 C 10.7 C 39.3 km/h (6 Bft)
03.03.2007 15:00 12.1 C 60 % 1012.2 hPa 0.0 l/m 25.5 km/h (4 Bft) W 1.00 h 1.5 UV-I 414 W/m 4.6 C 12.1 C 38.2 km/h (5 Bft)
03.03.2007 16:00 12.2 C 56 % 1012.9 hPa 0.0 l/m 22.0 km/h (4 Bft) W 0.35 h 0.6 UV-I 135 W/m 3.7 C 12.2 C 33.3 km/h (5 Bft)
03.03.2007 17:00 11.7 C 55 % 1014.0 hPa 0.0 l/m 21.4 km/h (4 Bft) W 0.00 h 0.5 UV-I 30 W/m 2.9 C 11.7 C 32.0 km/h (5 Bft)
03.03.2007 18:00 11.4 C 55 % 1015.4 hPa 0.0 l/m 16.6 km/h (3 Bft) W 0.00 h 0.0 UV-I 7 W/m 2.7 C 11.4 C 24.9 km/h (4 Bft)
03.03.2007 19:00 11.0 C 59 % 1017.1 hPa 0.0 l/m 10.9 km/h (2 Bft) W 0.00 h 0.0 UV-I 0 W/m 3.2 C 11.0 C 16.6 km/h (3 Bft)
03.03.2007 20:00 10.3 C 61 % 1018.3 hPa 0.0 l/m 8.7 km/h (2 Bft) W-SW 0.00 h 0.0 UV-I 0 W/m 3.0 C 10.3 C 13.3 km/h (3 Bft)
03.03.2007 21:00 10.3 C 60 % 1019.1 hPa 0.0 l/m 11.8 km/h (2 Bft) W 0.00 h 0.0 UV-I 0 W/m 2.7 C 10.2 C 18.3 km/h (3 Bft)
03.03.2007 22:00 9.6 C 63 % 1019.8 hPa 0.0 l/m 11.9 km/h (2 Bft) W 0.00 h 0.0 UV-I 0 W/m 2.9 C 7.9 C 18.8 km/h (3 Bft)
03.03.2007 23:00 8.6 C 68 % 1020.7 hPa 0.0 l/m 5.9 km/h (2 Bft) S-SO 0.00 h 0.0 UV-I 0 W/m 3.0 C 7.9 C 9.4 km/h (2 Bft)
04.03.2007 00:00 6.5 C 78 % 1021.5 hPa 0.0 l/m 3.1 km/h (1 Bft) SO 0.00 h 0.0 UV-I 0 W/m 3.0 C 6.3 C 4.7 km/h (1 Bft)
04.03.2007 01:00 5.8 C 83 % 1021.8 hPa 0.0 l/m 4.2 km/h (1 Bft) O-SO 0.00 h 0.0 UV-I 0 W/m 3.2 C 5.2 C 5.5 km/h (1 Bft)
04.03.2007 02:00 4.1 C 89 % 1022.1 hPa 0.0 l/m 1.6 km/h (1 Bft) O-SO 0.00 h 0.0 UV-I 0 W/m 2.5 C 4.0 C 2.5 km/h (1 Bft)
04.03.2007 03:00 3.1 C 93 % 1022.0 hPa 0.0 l/m 2.0 km/h (1 Bft) O-SO 0.00 h 0.0 UV-I 0 W/m 2.0 C 2.7 C 2.9 km/h (1 Bft)
04.03.2007 04:00 2.3 C 94 % 1022.1 hPa 0.0 l/m 0.4 km/h (0 Bft) O-SO 0.00 h 0.0 UV-I 0 W/m 1.4 C 2.3 C 0.7 km/h (0 Bft)
04.03.2007 05:00 1.8 C 96 % 1022.6 hPa 0.0 l/m 1.5 km/h (1 Bft) O-SO 0.00 h 0.0 UV-I 0 W/m 1.2 C 1.8 C 2.6 km/h (1 Bft)
04.03.2007 06:00 1.4 C 97 % 1023.0 hPa 0.0 l/m 0.4 km/h (0 Bft) O-SO 0.00 h 0.0 UV-I 0 W/m 1.0 C 1.4 C 1.2 km/h (1 Bft)
04.03.2007 07:00 1.2 C 97 % 1023.5 hPa 0.0 l/m 0.1 km/h (0 Bft) O-SO 0.15 h 0.0 UV-I 34 W/m 0.8 C 1.2 C 0.5 km/h (0 Bft)
04.03.2007 08:00 2.4 C 95 % 1023.6 hPa 0.0 l/m 0.0 km/h (0 Bft) N 1.00 h 0.6 UV-I 167 W/m 1.7 C 2.4 C 0.1 km/h (0 Bft)
04.03.2007 09:00 4.8 C 87 % 1023.3 hPa 0.0 l/m 0.5 km/h (0 Bft) O-SO 1.00 h 1.3 UV-I 313 W/m 2.7 C 4.8 C 1.6 km/h (1 Bft)
04.03.2007 10:00 7.7 C 77 % 1022.6 hPa 0.0 l/m 2.2 km/h (1 Bft) NO 1.00 h 2.2 UV-I 442 W/m 3.9 C 7.7 C 4.2 km/h (1 Bft)
04.03.2007 11:00 10.3 C 69 % 1021.7 hPa 0.0 l/m 3.1 km/h (1 Bft) W-NW 1.00 h 2.9 UV-I 529 W/m 4.9 C 10.3 C 5.2 km/h (1 Bft)
04.03.2007 12:00 12.8 C 58 % 1020.6 hPa 0.0 l/m 3.4 km/h (1 Bft) O 1.00 h 3.2 UV-I 568 W/m 4.8 C 12.8 C 6.7 km/h (2 Bft)
04.03.2007 13:00 13.7 C 51 % 1019.9 hPa 0.0 l/m 3.5 km/h (1 Bft) O-SO 1.00 h 3.0 UV-I 544 W/m 3.7 C 13.7 C 6.5 km/h (2 Bft)
04.03.2007 14:00 14.4 C 49 % 1018.9 hPa 0.0 l/m 3.5 km/h (1 Bft) O-SO 1.00 h 2.3 UV-I 480 W/m 3.9 C 14.4 C 6.9 km/h (2 Bft)
04.03.2007 15:00 14.6 C 49 % 1018.4 hPa 0.0 l/m 3.8 km/h (1 Bft) O-SO 1.00 h 1.4 UV-I 331 W/m 3.9 C 14.6 C 6.8 km/h (2 Bft)
04.03.2007 16:00 14.3 C 50 % 1017.5 hPa 0.0 l/m 2.3 km/h (1 Bft) O 0.87 h 0.7 UV-I 199 W/m 3.9 C 14.3 C 5.2 km/h (1 Bft)
04.03.2007 17:00 12.7 C 55 % 1016.8 hPa 0.0 l/m 1.3 km/h (1 Bft) O 0.00 h 0.5 UV-I 38 W/m 3.9 C 12.7 C 3.0 km/h (1 Bft)
04.03.2007 18:00 11.0 C 63 % 1016.8 hPa 0.0 l/m 0.4 km/h (0 Bft) O-NO 0.00 h 0.0 UV-I 6 W/m 4.2 C 11.0 C 1.4 km/h (1 Bft)
04.03.2007 19:00 9.7 C 69 % 1016.7 hPa 0.0 l/m 0.6 km/h (0 Bft) O 0.00 h 0.0 UV-I 0 W/m 4.3 C 9.7 C 1.2 km/h (1 Bft)
04.03.2007 20:00 7.9 C 77 % 1016.5 hPa 0.0 l/m 0.2 km/h (0 Bft) O 0.00 h 0.0 UV-I 0 W/m 4.1 C 7.9 C 0.6 km/h (0 Bft)
04.03.2007 21:00 6.5 C 82 % 1016.1 hPa 0.0 l/m 0.6 km/h (0 Bft) O 0.00 h 0.0 UV-I 0 W/m 3.7 C 6.5 C 1.5 km/h (1 Bft)
04.03.2007 22:00 5.6 C 85 % 1015.6 hPa 0.0 l/m 1.7 km/h (1 Bft) O 0.00 h 0.0 UV-I 0 W/m 3.3 C 5.6 C 3.0 km/h (1 Bft)
04.03.2007 23:00 5.0 C 87 % 1015.1 hPa 0.0 l/m 0.3 km/h (0 Bft) O 0.00 h 0.0 UV-I 0 W/m 3.0 C 5.0 C 0.9 km/h (0 Bft)
Min-Datum _ 04.03.07 04.03.07 01.03.07 - 26.02.07 - - - - 27.02.07 27.02.07 26.02.07
_ Min-Zeit 07:49 14:31 14:00 - 00:07 - - - - 13:02 02:35 00:10
Minimum _ 0.9 C 45 % 1000.1 hPa - 0.0 km/h (0 Bft) - - - - -0.9 C 0.6 C 0.0 km/h (0 Bft)
Max-Datum _ 04.03.07 03.03.07 04.03.07 03.03.07 03.03.07 - 26.02.07 27.02.07 27.02.07 03.03.07 04.03.07 03.03.07
_ Max-Zeit 15:23 00:34 07:45 03:02 13:44 - 16:44 11:59 11:58 08:35 15:23 12:39
Maximum _ 15.3 C 98 % 1023.7 hPa 5.2 l/m 51.8 km/h
W (7 Bft)
- 0.02 h 3.4 UV-I 729 W/m 9.0 C 15.3 C 71.5 km/h
W (8 Bft)
Durchschnitt _ 7.7 C 79 % 1012.0 hPa #59.2 l/m 8.8 km/h (2 Bft) W #15:34 h 1.2 UV-I 141 W/m 4.1 C 6.9 C 14.4 km/h (3 Bft)
© Kaiko 2007